Terminal Aerodrome Forecast
Issued by NWS Austin/San Antonio, TX

Home | Current Version | Previous Version | Text Only | Print | Product List | Glossary On
Versions: 1 2 3 4 5 6 7 8 9 10 11 12 13 14 15 16 17 18 19 20 21 22
000
FTUS44 KEWX 072331
TAFSAT
TAF
KSAT 072331Z 0800/0906 15015KT P6SM VCSH SCT040 BKN080 BKN250
     FM080300 15014KT P6SM BKN022
     FM080500 16012KT P6SM BKN012
     FM081600 17015KT P6SM SCT035 BKN250
     FM082000 15015G25KT P6SM SCT050 BKN250
     FM090300 15012KT P6SM BKN012=

USA.gov is the U.S. government's official web portal to all federal, state and local government web resources and services.